Louise, Mississippi
Current Conditions -  °F | °C
As of 8:53 AM on Saturday 20 Dec 2014 (Local Time) from KGLH Reporting Station
Haze Haze  
Wind Chill: 37°   Ceiling: Unl
Heat Index: 42°   Visibility: 6mi
Dew Point: 36°   Wind: 8mph
Humidity: 79%   Direction: 50°NE
Pressure: 30.26"   Gusts: NA
Location:  32.98°N, 90.59°W
Report Text: KGLH 201453Z AUTO 05007KT 6SM HZ CLR 06/02 A3026 RMK AO2 SLP257 T00560022 51013
Loading
Personal Weather Stations






























Interactive Weather Map New forecast layout! Learn more

10-Day Weather Forecast

Advertisements
Track Severe Weather on mobile